• Join FlightAware (Why Join?)
  • Login
  • US Flag 
01:55PM EDT


 

Airport Tracker/Info


-or-


 

Live Flight TrackerFlight Track Log ✈ USC105 ✈ 16-Apr-2013 ✈ KLCK - KBKL

Flight Track Log - Related Links

Times and Time Zones

All times are in EDT time to prevent confusion due to time zone crossing. See the USC105 flight status page for this flight to view local times or setup timezone preferences in your user account.

Time Position Orientation Groundspeed Altitude Reporting Facility
EDT Latitude Longitude Course Direction KTS MPH feet Rate Location/Type
10:03PM 39.8197 -82.9219 46° Northeast 112 129 900  Level Indianapolis Center
10:04PM 39.8403 -82.8944 46° Northeast 122 140 1,900 900 Climbing Indianapolis Center
10:05PM 39.8603 -82.8714 42° Northeast 117 135 2,600 900 Climbing Indianapolis Center
10:06PM 39.8844 -82.8397 45° Northeast 119 137 3,700 1,080 Climbing Indianapolis Center
10:07PM 39.9169 -82.8281 15° North 122 140 4,800 540 Climbing Indianapolis Center
10:08PM 39.9536 -82.8147 16° North 135 155 4,900 240 Climbing Indianapolis Center
10:09PM 40.0053 -82.7947 17° North 163 188 5,300 720 Climbing Indianapolis Center
10:10PM 40.0439 -82.7767 20° North 148 170 6,400 780 Climbing Indianapolis Center
10:11PM 40.0903 -82.7567 18° North 154 177 7,000 240 Climbing Indianapolis Center
10:12PM 40.1242 -82.7092 47° Northeast 201 231 7,000  Level Indianapolis Center
10:13PM 40.1681 -82.6692 35° Northeast 192 221 7,000  Level Indianapolis Center
10:14PM 40.2142 -82.6406 25° Northeast 184 212 7,000  Level Indianapolis Center
10:15PM 40.2578 -82.6097 28° Northeast 184 212 7,000  Level Indianapolis Center
10:16PM 40.3039 -82.5767 29° Northeast 187 215 7,000  Level Indianapolis Center
10:17PM 40.3508 -82.5431 29° Northeast 190 219 7,000  Level Indianapolis Center
10:18PM 40.4000 -82.5100 27° Northeast 195 224 7,000  Level Indianapolis Center
10:19PM 40.4472 -82.4753 29° Northeast 195 224 7,000  Level Indianapolis Center
10:21PM 40.5115 -82.4304 28° Northeast  Level FlightAware Approximate
10:27PM 40.8292 -82.1967 32° Northeast 198 228 7,000  Level Cleveland Center
10:27PM 40.8564 -82.1781 27° Northeast 199 229 7,000  Level Cleveland Center
10:28PM 40.7922 -82.2332 28° Northeast  Level FlightAware Approximate
10:28PM 40.9092 -82.1381 30° Northeast 199 229 7,000  Level Cleveland Center
10:29PM 40.8323 -82.2049 28° Northeast  Level FlightAware Approximate
10:30PM 40.9523 -82.1045 30° Northeast  Level FlightAware Approximate
10:30PM 40.8723 -82.1765 28° Northeast  Level FlightAware Approximate
10:31PM 40.9124 -82.1482 28° Northeast  Level FlightAware Approximate
10:32PM 40.9516 -82.1179 32° Northeast  Level FlightAware Approximate
10:37PM 41.2300 -81.8986 37° Northeast  Level Estimated
10:38PM 41.2696 -81.8691 30° Northeast  Level Estimated
10:39PM 41.3078 -81.8364 33° Northeast  Level FlightAware Approximate
10:40PM 41.3461 -81.8036 33° Northeast  Level FlightAware Approximate
10:41PM 41.3843 -81.7709 33° Northeast  Level FlightAware Approximate
10:42PM 41.4225 -81.7380 33° Northeast  Level FlightAware Approximate
10:43PM 41.4642 -81.7140 27° Northeast  Level Estimated
10:44PM 41.5059 -81.6900 27° Northeast  Level Estimated
10:45PM 41.5175 -81.6833 27° Northeast  Level Estimated
10:46PM 41.5175 -81.6833 27° Northeast  Level Estimated
10:47PM 41.5175 -81.6833 27° Northeast  Level Estimated
10:48PM 41.5175 -81.6833 27° Northeast  Level Estimated
10:49PM 41.5175 -81.6833 27° Northeast  Level Estimated
10:50PM 41.5175 -81.6833 27° Northeast  Level Estimated
10:51PM 41.5175 -81.6833 27° Northeast  Level Estimated
10:52PM 41.5175 -81.6833 27° Northeast  Level Estimated